Latest Weather Observations for Tocal

IDN60801

Issued at 11:05 pm EST Tuesday 22 July 2014 (issued every 30 minutes, with the page automatically refreshed every 10 minutes)

About weather observations | Map of weather stations | Latest weather observations for NSW | Other Formats
Station Details ID: 061250 Name: TOCAL AWS Lat: -32.63 Lon: 151.59 Height: 30.0 m
Data from the previous 72 hours. | See also: Recent months at Tocal
Date/Time
EST
Temp
°C
App
Temp
°C
Dew
Point
Rel
Hum
%
Delta-T
°C
Wind Press
QNH
hPa
Press
MSL
hPa
Rain
since 9 am
mm
Dir
 
Spd
km/h
Gust
km/h
Spd
kts
Gust
kts
22/11:00pm 6.2 4.0 6.2 100 0.0 NNW 7 7 4 4 - - 2.0
22/10:30pm 7.4 6.8 7.4 100 0.0 W 0 0 0 0 - - 2.0
22/10:00pm 7.5 6.9 7.5 100 0.0 CALM 0 0 0 0 - - 2.0
22/09:30pm 8.1 7.7 8.1 100 0.0 CALM 0 0 0 0 - - 2.0
22/09:00pm 8.8 8.5 8.8 100 0.0 N 0 7 0 4 - - 2.0
22/08:30pm 8.2 6.6 8.2 100 0.0 NW 6 7 3 4 - - 2.0
22/08:00pm 8.7 7.0 8.5 99 0.1 NW 7 9 4 5 - - 2.0
22/07:30pm 9.6 8.4 9.4 99 0.1 WNW 6 9 3 5 - - 2.0
22/07:00pm 10.1 9.7 9.7 97 0.2 NW 2 7 1 4 - - 2.0
22/06:30pm 11.4 11.6 10.4 94 0.5 CALM 0 0 0 0 - - 2.0
22/06:00pm 12.0 11.1 10.7 92 0.7 WNW 6 9 3 5 - - 2.0
22/05:30pm 13.0 13.3 10.9 87 1.1 CALM 0 0 0 0 - - 2.0
22/05:00pm 14.0 13.1 10.8 81 1.7 SE 6 9 3 5 - - 2.0
22/04:30pm 14.9 13.4 10.5 75 2.3 SSE 9 15 5 8 - - 2.0
22/04:00pm 15.9 13.9 10.2 69 3.0 ESE 11 17 6 9 - - 2.0
22/03:30pm 15.5 13.7 10.8 73 2.5 ESE 11 17 6 9 - - 2.0
22/03:00pm 14.5 14.0 11.9 84 1.4 S 6 7 3 4 - - 2.0
22/02:30pm 14.3 14.0 12.8 91 0.8 W 6 7 3 4 - - 2.0
22/02:00pm 15.2 12.7 11.1 76 2.2 SSE 15 30 8 16 - - 0.4
22/01:30pm 16.4 15.1 10.1 66 3.3 S 7 11 4 6 - - 0.0
22/01:00pm 18.4 16.6 9.5 56 4.7 N 9 11 5 6 - - 0.0
22/12:30pm 18.5 17.2 10.1 58 4.5 WSW 7 13 4 7 - - 0.0
22/12:00pm 17.6 16.1 10.5 63 3.8 W 9 11 5 6 - - 0.0
22/11:30am 16.4 15.2 10.4 67 3.2 WNW 7 9 4 5 - - 0.0
22/11:00am 15.9 14.7 10.4 70 2.9 WSW 7 9 4 5 - - 0.0
22/10:30am 15.1 14.2 10.6 74 2.4 SSW 6 13 3 7 - - 0.0
22/10:00am 14.7 13.9 11.1 79 1.9 WSW 6 13 3 7 - - 0.0
22/09:30am 13.6 14.0 11.1 85 1.3 N 0 7 0 4 - - 0.0
22/09:00am 10.9 11.0 10.3 96 0.3 CALM 0 0 0 0 - - 0.0
22/08:30am 10.0 10.0 9.8 99 0.1 CALM 0 0 0 0 - - 0.0
22/08:00am 9.3 9.1 9.1 99 0.1 CALM 0 0 0 0 - - 0.0
22/07:30am 8.7 8.4 8.7 100 0.0 CALM 0 0 0 0 - - 0.0
22/07:00am 8.4 8.0 8.4 100 0.0 CALM 0 0 0 0 - - 0.0
22/06:30am 8.6 8.3 8.6 100 0.0 CALM 0 0 0 0 - - 0.0
22/06:00am 9.0 8.7 8.8 99 0.1 SW 0 0 0 0 - - 0.0
22/05:30am 8.4 8.0 8.4 100 0.0 CALM 0 0 0 0 - - 0.0
22/05:00am 9.0 8.7 8.8 99 0.1 CALM 0 0 0 0 - - 0.0
22/04:30am 8.6 8.2 8.4 99 0.1 CALM 0 0 0 0 - - 0.0
22/04:00am 8.9 8.6 8.7 99 0.1 CALM 0 0 0 0 - - 0.0
22/03:30am 8.8 8.5 8.6 99 0.1 CALM 0 0 0 0 - - 0.0
22/03:00am 8.8 8.5 8.8 100 0.0 CALM 0 0 0 0 - - 0.0
22/02:30am 8.4 8.0 8.4 100 0.0 CALM 0 0 0 0 - - 0.0
22/02:00am 8.6 8.3 8.6 100 0.0 CALM 0 4 0 2 - - 0.0
22/01:30am 8.6 8.2 8.4 99 0.1 CALM 0 0 0 0 - - 0.0
22/01:00am 8.4 8.0 8.4 100 0.0 CALM 0 0 0 0 - - 0.0
22/12:30am 8.5 7.7 8.3 99 0.1 NNW 2 6 1 3 - - 0.0
22/12:00am 8.5 7.0 8.3 99 0.1 NW 6 7 3 4 - - 0.0
 
Date/Time
EST
Temp
°C
App
Temp
°C
Dew
Point
Rel
Hum
%
Delta-T
°C
Wind Press
QNH
hPa
Press
MSL
hPa
Rain
since 9 am
mm
Dir
 
Spd
km/h
Gust
km/h
Spd
kts
Gust
kts
21/11:30pm 9.4 8.1 9.2 99 0.1 W 6 7 3 4 - - 0.0
21/11:00pm 9.2 9.0 9.0 99 0.1 CALM 0 0 0 0 - - 0.0
21/10:30pm 9.1 8.8 8.7 97 0.2 CALM 0 0 0 0 - - 0.0
21/10:00pm 9.7 9.6 9.3 97 0.2 CALM 0 0 0 0 - - 0.0
21/09:30pm 9.9 9.8 9.3 96 0.3 CALM 0 0 0 0 - - 0.0
21/09:00pm 10.3 10.2 9.5 95 0.4 WNW 0 6 0 3 - - 0.0
21/08:30pm 10.4 10.3 9.6 95 0.4 CALM 0 0 0 0 - - 0.0
21/08:00pm 10.8 10.4 9.6 92 0.6 NW 2 6 1 3 - - 0.0
21/07:30pm 11.2 10.1 10.0 92 0.6 WNW 6 7 3 4 - - 0.0
21/07:00pm 12.4 11.3 10.5 88 1.0 WSW 7 7 4 4 - - 0.0
21/06:30pm 12.9 11.8 10.6 86 1.2 SW 7 9 4 5 - - 0.0
21/06:00pm 13.2 13.4 10.5 84 1.4 CALM 0 0 0 0 - - 0.0
21/05:30pm 14.0 13.8 10.6 80 1.8 SE 2 7 1 4 - - 0.0
21/05:00pm 14.6 13.0 10.2 75 2.3 SE 9 11 5 6 - - 0.0
21/04:30pm 15.6 13.6 10.1 70 2.9 SE 11 15 6 8 - - 0.0
21/04:00pm 16.0 14.3 9.9 67 3.2 SE 9 13 5 7 - - 0.0
21/03:30pm 16.3 13.7 9.4 63 3.6 SE 13 19 7 10 - - 0.0
21/03:00pm 16.6 14.2 8.8 60 4.0 SE 11 17 6 9 - - 0.0
21/02:30pm 17.4 15.3 8.2 54 4.7 SSE 9 15 5 8 - - 0.0
21/02:00pm 18.8 16.4 8.8 52 5.2 ESE 11 19 6 10 - - 0.0
21/01:30pm 17.2 15.5 8.4 56 4.5 SW 7 11 4 6 - - 0.0
21/01:00pm 17.6 15.5 8.2 54 4.8 ENE 9 15 5 8 - - 0.0
21/12:30pm 17.2 15.6 8.7 57 4.4 S 7 11 4 6 - - 0.0
21/12:00pm 16.8 15.1 9.7 63 3.7 ENE 9 11 5 6 - - 0.0
21/11:30am 16.0 14.7 9.9 67 3.2 N 7 11 4 6 - - 0.0
21/11:00am 15.1 13.4 9.9 71 2.7 NE 9 11 5 6 - - 0.0
21/10:30am 13.9 12.6 10.0 77 2.0 ENE 7 11 4 6 - - 0.0
21/10:00am 12.4 10.4 10.1 86 1.2 ENE 11 13 6 7 - - 0.0
21/09:30am 11.6 9.8 9.6 87 1.0 NE 9 11 5 6 - - 0.0
21/09:00am 9.2 7.6 8.8 97 0.2 NE 7 7 4 4 - - 0.8
21/08:30am 8.0 7.2 8.0 100 0.0 NNE 2 7 1 4 - - 0.8
21/08:00am 7.3 6.7 7.3 100 0.0 CALM 0 0 0 0 - - 0.8
21/07:30am 6.6 5.8 6.6 100 0.0 CALM 0 0 0 0 - - 0.8
21/07:00am 6.7 5.9 6.7 100 0.0 CALM 0 0 0 0 - - 0.8
21/06:30am 7.6 7.0 7.6 100 0.0 CALM 0 0 0 0 - - 0.8
21/06:00am 8.1 7.3 8.1 100 0.0 E 2 6 1 3 - - 0.8
21/05:30am 8.5 7.4 8.5 100 0.0 E 4 7 2 4 - - 0.8
21/05:00am 8.5 6.5 8.5 100 0.0 NE 9 9 5 5 - - 0.8
21/04:30am 9.1 8.4 8.7 97 0.2 E 2 7 1 4 - - 0.8
21/04:00am 8.7 7.6 8.5 99 0.1 N 4 7 2 4 - - 0.8
21/03:30am 8.6 8.2 8.4 99 0.1 CALM 0 0 0 0 - - 0.8
21/03:00am 8.9 8.6 8.7 99 0.1 CALM 0 0 0 0 - - 0.8
21/02:30am 9.2 9.0 9.0 99 0.1 CALM 0 0 0 0 - - 0.8
21/02:00am 8.7 8.3 8.3 97 0.2 CALM 0 0 0 0 - - 0.8
21/01:30am 9.0 7.6 8.8 99 0.1 WSW 6 7 3 4 - - 0.8
21/01:00am 9.3 9.1 9.1 99 0.1 CALM 0 0 0 0 - - 0.8
21/12:30am 9.5 9.3 8.9 96 0.3 CALM 0 7 0 4 - - 0.8
21/12:00am 9.3 9.2 9.3 100 0.0 CALM 0 0 0 0 - - 0.8
 
Date/Time
EST
Temp
°C
App
Temp
°C
Dew
Point
Rel
Hum
%
Delta-T
°C
Wind Press
QNH
hPa
Press
MSL
hPa
Rain
since 9 am
mm
Dir
 
Spd
km/h
Gust
km/h
Spd
kts
Gust
kts
20/11:30pm 9.3 9.1 9.1 99 0.1 CALM 0 0 0 0 - - 0.8
20/11:00pm 9.7 9.6 9.3 97 0.2 CALM 0 0 0 0 - - 0.8
20/10:30pm 10.3 10.3 9.7 96 0.3 CALM 0 0 0 0 - - 0.8
20/10:00pm 10.3 10.2 9.3 93 0.5 CALM 0 0 0 0 - - 0.8
20/09:30pm 10.5 9.6 9.1 91 0.7 W 4 6 2 3 - - 0.8
20/09:00pm 10.8 10.6 9.2 90 0.8 CALM 0 0 0 0 - - 0.8
20/08:30pm 10.5 9.2 9.1 91 0.7 NW 6 7 3 4 - - 0.8
20/08:00pm 10.6 10.5 9.4 92 0.6 CALM 0 7 0 4 - - 0.8
20/07:30pm 11.3 11.3 9.7 90 0.8 CALM 0 0 0 0 - - 0.8
20/07:00pm 11.9 10.6 9.3 84 1.3 NW 6 7 3 4 - - 0.8
20/06:30pm 12.2 11.0 9.6 84 1.3 NNW 6 7 3 4 - - 0.8
20/06:00pm 13.0 11.8 9.5 79 1.8 WSW 6 9 3 5 - - 0.8
20/05:30pm 13.4 12.1 9.3 76 2.1 SW 6 9 3 5 - - 0.8
20/05:00pm 13.6 11.7 9.1 74 2.3 SW 9 15 5 8 - - 0.8
20/04:30pm 13.4 11.8 10.1 80 1.7 WSW 9 11 5 6 - - 0.8
20/04:00pm 13.8 11.6 9.5 75 2.2 SSW 11 19 6 10 - - 0.8
20/03:30pm 13.3 13.3 11.0 86 1.2 NW 2 7 1 4 - - 0.8
20/03:00pm 12.9 12.1 11.8 93 0.6 ENE 7 9 4 5 - - 0.8
20/02:30pm 12.9 11.7 11.6 92 0.7 NNE 9 11 5 6 - - 0.8
20/02:00pm 12.9 12.1 11.6 92 0.7 N 7 9 4 5 - - 0.8
20/01:30pm 12.3 11.1 11.5 95 0.4 N 9 11 5 6 - - 0.8
20/01:00pm 12.4 11.1 11.1 92 0.7 NNW 9 13 5 7 - - 0.8
20/12:30pm 12.1 11.0 10.8 92 0.7 W 7 9 4 5 - - 0.8
20/12:00pm 13.5 10.9 7.8 68 2.8 WNW 11 17 6 9 - - 0.0
20/11:30am 13.5 10.6 6.7 63 3.3 NW 11 17 6 9 - - 0.0
20/11:00am 13.9 11.1 7.1 63 3.3 W 11 17 6 9 - - 0.0
20/10:30am 14.1 11.8 7.4 64 3.3 WNW 9 13 5 7 - - 0.0
20/10:00am 13.0 11.0 7.0 67 2.9 NW 7 11 4 6 - - 0.0
20/09:30am 12.7 10.2 6.6 66 2.9 W 9 15 5 8 - - 0.0
20/09:00am 12.0 10.0 7.0 71 2.4 WNW 7 11 4 6 - - 1.0
20/08:30am 11.0 8.6 7.0 76 1.9 W 9 15 5 8 - - 1.0
20/08:00am 10.4 8.4 7.3 81 1.5 NNW 7 9 4 5 - - 1.0
20/07:30am 10.1 9.0 7.1 81 1.4 N 2 6 1 3 - - 1.0
20/07:00am 10.2 9.1 6.8 79 1.6 NW 2 7 1 4 - - 1.0
20/06:30am 10.5 8.4 6.7 77 1.8 W 7 9 4 5 - - 0.8
20/06:00am 11.4 8.1 4.8 64 3.0 WSW 11 13 6 7 - - 0.8
20/05:30am 11.4 8.5 4.6 63 3.1 W 9 17 5 9 - - 0.8
20/05:00am 11.3 8.4 4.4 62 3.1 W 9 13 5 7 - - 0.8
20/04:30am 11.5 8.0 3.6 58 3.5 W 11 17 6 9 - - 0.8
20/04:00am 11.2 7.7 3.5 59 3.4 W 11 17 6 9 - - 0.8
20/03:30am 11.0 7.1 3.5 60 3.3 W 13 22 7 12 - - 0.8
20/03:00am 11.7 7.7 2.8 54 3.9 W 13 20 7 11 - - 0.8
20/02:30am 11.8 7.9 3.2 55 3.8 W 13 20 7 11 - - 0.8
20/02:00am 11.7 8.2 3.6 57 3.6 WSW 11 15 6 8 - - 0.8
20/01:30am 12.0 8.1 3.4 55 3.8 WSW 13 19 7 10 - - 0.8
20/01:00am 11.9 7.9 3.0 54 3.9 WSW 13 17 7 9 - - 0.8
20/12:30am 12.0 8.0 2.9 53 4.0 WSW 13 19 7 10 - - 0.8
20/12:00am 11.7 8.2 3.3 56 3.7 WSW 11 17 6 9 - - 0.8
 
Date/Time
EST
Temp
°C
App
Temp
°C
Dew
Point
Rel
Hum
%
Delta-T
°C
Wind Press
QNH
hPa
Press
MSL
hPa
Rain
since 9 am
mm
Dir
 
Spd
km/h
Gust
km/h
Spd
kts
Gust
kts
19/11:30pm 11.8 8.6 2.9 54 3.9 WSW 9 13 5 7 - - 0.8

Other Formats:

Comma delimited format used in spreadsheet applications
http://www.bom.gov.au/fwo/IDN60801/IDN60801.94775.axf

JavaScript Object Notation format (JSON) in row-major order
http://www.bom.gov.au/fwo/IDN60801/IDN60801.94775.json